Chunchula, AL (36521)

1:53 PM CDT on April 01, 2015 (GMT -0500)
York Hill Gulfcrest, Alabama | | Change Station
CLOSE
Current Station
Personal Weather Station
Location: Chunchula, AL
Elevation: 190 ft
Nearby Weather Stations

Elev 190 ft 30.99 °N, 88.24 °W | Updated 4 minutes ago

Mostly Cloudy
Mostly Cloudy
86.0 °F
Feels Like 86 °F
N
1.7
Wind Variable Wind from WNW

Today
High -- | Low -- °F
--% Chance of Precip.
Yesterday
High -- | Low -- °F
Precip. -- in
6:41 AM 7:11 PM
Waxing Gibbous, 93% visible
Pressure 30.09 in
Visibility 10.0 miles
Clouds Mostly Cloudy 4200 ft
Mostly Cloudy 20000 ft
Heat Index 86 °F
Dew Point 60 °F
Humidity 42%
Rainfall 0.00 in
Snow Depth Not available.
UV 6 out of 12
Pollen 10.20 out of 12
Air Quality Not available.
Flu Activity Not available.
METAR KMOB 011756Z VRB05KT 10SM BKN042 BKN200 26/14 A3010 RMK AO2 SLP189 T02610144 10267 20144 58009

More Conditions Fewer Conditions

Pressure 30.09 in
Visibility 10.0 miles
Clouds Mostly Cloudy 4200 ft
Mostly Cloudy 20000 ft
Heat Index 86 °F
Dew Point 60 °F
Humidity 42%
Rainfall 0.00 in
Snow Depth Not available.
UV 6 out of 12
Pollen 10.20 out of 12
Air Quality Not available.
Flu Activity Not available.
METAR KMOB 011756Z VRB05KT 10SM BKN042 BKN200 26/14 A3010 RMK AO2 SLP189 T02610144 10267 20144 58009

More Conditions Fewer Conditions

10-Day Weather Forecast

Almanac

Astronomy

Apr. 01, 2015 Rise Set
Actual Time
Civil Twilight
Nautical Twilight
Astronomical Twilight
Moon
Length of Visible Light
Length of Day
Tomorrow will be .
, % of the Moon is Illuminated

Today's Extremes

State Highs State Lows

Community

WunderPhotos

Upload Photos

1,810,036 photos uploaded!

WunderBlogs® & News

Nearby

Air Quality

  Air Quality AQ Index Pollutant
Not available.

Snow Depth

Station Depth Elevation

Earthquake Activity

City Distance Mag. Time & Date
Minimum magnitude displayed is 2.5.

Coastal Water Temperatures

Place Temperature

Stations

Nearby Weather Stations

Station Location Temp. Windchill Dew Point Humidity Wind Precip. Elev Updated Type